Time;durP1;ratioP1;P1;durP2;ratioP2;P2;SDS_P1;SDS_P2;PMS_P1;PMS_P2;Temp;Humidity;BMP_temperature;BMP_pressure;BME280_temperature;BME280_humidity;BME280_pressure;Samples;Min_cycle;Max_cycle;Signal;HPM_P1;HPM_P2
2022/01/13 00:01:01;;;;;;;38.75;19.62;;;;;;;0.30;84.83;102032.91;2122796;82;21028;-89
2022/01/13 00:04:03;;;;;;;41.42;17.52;;;;;;;0.30;84.83;102036.83;2118045;82;21479;-88
2022/01/13 00:07:05;;;;;;;42.55;19.98;;;;;;;0.31;84.82;102037.25;2115278;82;21014;-89
2022/01/13 00:10:08;;;;;;;38.10;17.95;;;;;;;0.33;84.91;102034.56;2120872;82;20946;-89
2022/01/13 00:13:13;;;;;;;41.02;18.62;;;;;;;0.33;85.08;102035.41;2123671;82;20981;-88
2022/01/13 00:22:49;;;;;;;31.40;16.55;;;;;;;0.32;85.24;102040.24;2142883;82;21469;-88
2022/01/13 00:25:43;;;;;;;33.13;16.57;;;;;;;0.32;85.13;102044.16;2141942;82;21972;-87
2022/01/13 00:28:47;;;;;;;31.52;16.73;;;;;;;0.35;85.16;102056.27;2138191;82;21439;-87
2022/01/13 00:31:49;;;;;;;30.93;15.53;;;;;;;0.36;85.12;102061.41;2114624;82;22338;-88
2022/01/13 00:34:51;;;;;;;31.02;15.60;;;;;;;0.38;85.15;102059.61;2138569;82;20965;-88
2022/01/13 00:37:52;;;;;;;28.65;15.08;;;;;;;0.42;85.02;102080.81;2142548;82;21585;-89
2022/01/13 00:40:54;;;;;;;27.77;14.43;;;;;;;0.43;85.18;102079.05;2140182;82;20973;-88
2022/01/13 00:43:57;;;;;;;32.05;15.95;;;;;;;0.42;85.24;102070.37;2138961;82;21004;-89
2022/01/13 00:47:00;;;;;;;28.67;15.38;;;;;;;0.43;85.20;102083.81;2139587;82;21062;-88
2022/01/13 00:50:04;;;;;;;28.98;15.38;;;;;;;0.43;85.19;102075.98;2140900;82;21030;-88
2022/01/13 00:53:06;;;;;;;28.35;16.25;;;;;;;0.42;85.20;102072.98;2139979;82;20980;-89
2022/01/13 00:56:07;;;;;;;31.55;16.32;;;;;;;0.43;85.12;102082.97;2141183;82;21039;-88
2022/01/13 00:59:12;;;;;;;28.35;15.03;;;;;;;0.46;85.24;102093.77;2137569;82;21021;-88
2022/01/13 01:02:14;;;;;;;30.12;14.45;;;;;;;0.47;85.41;102098.92;2140816;82;21489;-87
2022/01/13 01:05:15;;;;;;;28.15;15.30;;;;;;;0.48;85.53;102102.38;2144261;82;20974;-88
2022/01/13 01:08:18;;;;;;;27.30;14.93;;;;;;;0.49;85.41;102110.17;2143864;82;21029;-86
2022/01/13 01:11:20;;;;;;;24.95;13.90;;;;;;;0.51;85.48;102099.23;2139332;82;21022;-87
2022/01/13 01:14:23;;;;;;;30.20;15.50;;;;;;;0.49;85.77;102042.26;2138082;82;21052;-87
2022/01/13 01:17:24;;;;;;;30.48;15.28;;;;;;;0.49;85.50;102040.11;2140230;82;21483;-89
2022/01/13 01:20:30;;;;;;;27.07;15.10;;;;;;;0.49;85.47;102030.96;2135111;81;20993;-87
2022/01/13 01:23:35;;;;;;;26.37;14.80;;;;;;;0.49;85.46;102035.73;2124768;83;21021;-88
2022/01/13 01:29:41;;;;;;;22.10;12.63;;;;;;;0.49;85.48;102026.59;2128081;82;21052;-87
2022/01/13 01:32:40;;;;;;;22.98;14.00;;;;;;;0.51;85.63;102022.16;2131595;82;21800;-87
2022/01/13 01:35:42;;;;;;;25.12;13.72;;;;;;;0.51;85.71;102006.50;2136097;82;21546;-88
2022/01/13 01:38:47;;;;;;;23.60;13.48;;;;;;;0.50;85.72;101998.70;2131160;82;21033;-88
2022/01/13 01:41:53;;;;;;;27.95;14.50;;;;;;;0.47;85.70;102000.97;2132881;81;20961;-88
2022/01/13 01:44:57;;;;;;;23.65;14.00;;;;;;;0.49;85.57;101999.62;2132451;81;20988;-87
2022/01/13 01:48:03;;;;;;;25.82;13.72;;;;;;;0.49;85.65;102007.45;2131154;81;20965;-87
2022/01/13 01:51:04;;;;;;;22.40;12.80;;;;;;;0.48;85.79;102006.61;2132350;82;21015;-87
2022/01/13 01:54:06;;;;;;;22.67;12.10;;;;;;;0.49;85.79;102005.69;2129828;81;21012;-88
2022/01/13 01:57:08;;;;;;;21.65;12.53;;;;;;;0.50;85.72;102023.52;2127782;81;20980;-87
2022/01/13 02:00:15;;;;;;;23.73;13.78;;;;;;;0.51;85.71;102026.52;2130416;81;21052;-86
2022/01/13 02:03:17;;;;;;;23.45;13.35;;;;;;;0.55;85.51;102025.52;2126399;82;21550;-87
2022/01/13 02:06:19;;;;;;;24.43;13.40;;;;;;;0.54;85.46;102011.60;2131996;81;21043;-86
2022/01/13 02:09:22;;;;;;;20.43;13.38;;;;;;;0.52;85.60;102015.17;2128220;82;21404;-86
2022/01/13 02:12:36;;;;;;;21.73;12.82;;;;;;;0.51;85.50;102019.55;2126488;82;20988;-87
2022/01/13 02:18:58;;;;;;;26.90;12.70;;;;;;;0.52;85.41;102027.78;2137160;82;21066;-86
2022/01/13 02:22:00;;;;;;;23.15;13.43;;;;;;;0.54;85.29;102027.73;2143045;82;21005;-87
2022/01/13 02:25:03;;;;;;;24.50;11.70;;;;;;;0.54;85.17;102023.82;2144145;82;21029;-87
2022/01/13 02:28:05;;;;;;;29.15;14.38;;;;;;;0.55;85.16;102024.20;2137980;82;21039;-87
2022/01/13 02:31:06;;;;;;;31.40;15.10;;;;;;;0.55;85.24;102022.90;2137375;82;21503;-87
2022/01/13 02:34:07;;;;;;;26.30;14.47;;;;;;;0.54;85.15;102018.59;2141460;82;21023;-87
2022/01/13 02:37:10;;;;;;;25.27;14.20;;;;;;;0.51;85.40;102014.33;2138716;82;20968;-87
2022/01/13 02:40:12;;;;;;;29.32;13.75;;;;;;;0.49;85.51;102020.52;2140036;82;20991;-88
2022/01/13 02:43:15;;;;;;;26.20;13.80;;;;;;;0.48;85.43;102012.27;2142687;82;20993;-86
2022/01/13 02:49:39;;;;;;;27.02;14.50;;;;;;;0.49;85.46;102014.83;2139917;82;21023;-86
2022/01/13 02:52:40;;;;;;;27.05;14.05;;;;;;;0.51;85.30;102017.37;2142015;82;21000;-85
2022/01/13 02:55:42;;;;;;;24.30;14.58;;;;;;;0.52;85.28;102010.80;2136245;82;21038;-88
2022/01/13 02:58:45;;;;;;;27.48;16.40;;;;;;;0.53;85.12;102015.56;2139628;82;20973;-88
2022/01/13 03:01:46;;;;;;;27.80;16.37;;;;;;;0.51;85.14;102013.45;2140482;82;21044;-87
2022/01/13 03:04:49;;;;;;;30.45;17.55;;;;;;;0.49;85.04;102025.28;2140166;82;21064;-88
2022/01/13 03:07:52;;;;;;;33.48;16.37;;;;;;;0.50;85.00;102024.36;2139044;82;21047;-86
2022/01/13 03:10:54;;;;;;;30.48;15.15;;;;;;;0.50;84.99;102025.66;2140315;82;21074;-87
2022/01/13 03:13:55;;;;;;;30.65;16.80;;;;;;;0.52;84.94;102031.70;2141062;82;21086;-86
2022/01/13 03:16:57;;;;;;;33.35;17.40;;;;;;;0.52;84.92;102020.40;2140143;82;21539;-89
2022/01/13 03:19:58;;;;;;;28.38;17.23;;;;;;;0.55;84.93;102017.67;2143414;82;21009;-86
2022/01/13 03:23:03;;;;;;;32.03;17.37;;;;;;;0.54;84.87;102008.99;2144212;82;21070;-89
2022/01/13 03:26:04;;;;;;;29.82;17.42;;;;;;;0.52;84.91;102000.81;2139388;82;21012;-88
2022/01/13 03:32:14;;;;;;;30.88;17.37;;;;;;;0.47;85.04;101989.67;2142804;82;21501;-88
2022/01/13 03:35:16;;;;;;;32.33;17.40;;;;;;;0.46;85.08;101977.53;2142384;82;21322;-88
2022/01/13 03:38:17;;;;;;;30.00;18.40;;;;;;;0.48;85.15;101984.41;2139187;82;20956;-86
2022/01/13 03:41:21;;;;;;;39.98;21.10;;;;;;;0.49;85.11;101980.88;2140031;82;20964;-86
2022/01/13 03:44:28;;;;;;;37.95;20.60;;;;;;;0.49;85.20;101981.34;2138414;82;21081;-86
2022/01/13 03:47:30;;;;;;;46.28;24.18;;;;;;;0.49;85.14;101990.48;2142050;82;21024;-88
2022/01/13 03:50:31;;;;;;;38.48;21.30;;;;;;;0.49;85.12;101990.48;2143207;82;21527;-85
2022/01/13 03:54:11;;;;;;;40.20;21.00;;;;;;;0.46;84.98;101977.53;2139210;82;21007;-87
2022/01/13 03:57:55;;;;;;;32.50;19.60;;;;;;;0.43;84.83;101990.25;2143028;82;20984;-87
2022/01/13 04:01:21;;;;;;;34.92;20.15;;;;;;;0.40;84.46;101988.59;2140413;82;21098;-87
2022/01/13 04:04:23;;;;;;;40.52;19.42;;;;;;;0.39;84.42;101994.70;2142388;82;21016;-88
2022/01/13 04:07:25;;;;;;;40.17;21.20;;;;;;;0.41;84.40;101995.97;2143435;82;21019;-88
2022/01/13 04:10:48;;;;;;;39.40;21.00;;;;;;;0.41;84.29;101996.81;2136120;82;21028;-87
2022/01/13 04:13:56;;;;;;;37.13;19.62;;;;;;;0.40;84.13;101988.59;2138200;82;21007;-87
2022/01/13 04:16:53;;;;;;;37.42;18.27;;;;;;;0.37;83.97;101993.94;2140302;82;21077;-89
2022/01/13 04:19:55;;;;;;;31.25;17.57;;;;;;;0.36;83.92;101992.20;2134168;82;21537;-87
2022/01/13 04:22:57;;;;;;;31.05;16.85;;;;;;;0.38;83.84;101987.79;2127387;81;21022;-87
2022/01/13 04:26:00;;;;;;;37.23;19.07;;;;;;;0.38;83.75;101987.79;2113520;82;21018;-86
2022/01/13 04:32:10;;;;;;;37.20;19.50;;;;;;;0.40;83.65;101994.28;2128575;82;21838;-86
2022/01/13 04:35:12;;;;;;;32.70;17.90;;;;;;;0.39;83.59;101988.17;2117762;82;21007;-87
2022/01/13 04:38:14;;;;;;;34.63;18.35;;;;;;;0.38;83.50;101991.70;2117920;82;21022;-86
2022/01/13 04:41:25;;;;;;;31.65;17.07;;;;;;;0.38;83.46;101985.17;2123984;81;21014;-87
2022/01/13 04:44:21;;;;;;;33.95;17.50;;;;;;;0.38;83.40;101976.04;2118646;82;21089;-86
2022/01/13 04:47:23;;;;;;;34.40;19.00;;;;;;;0.40;83.32;101962.48;2119462;82;21062;-86
2022/01/13 04:50:25;;;;;;;36.75;19.52;;;;;;;0.40;83.31;101950.72;2123270;82;20959;-86
2022/01/13 04:53:27;;;;;;;31.82;19.15;;;;;;;0.42;83.23;101942.39;2137065;82;21061;-88
2022/01/13 04:56:37;;;;;;;35.10;18.27;;;;;;;0.43;83.18;101939.31;2125191;82;21042;-86
2022/01/13 04:59:32;;;;;;;33.67;17.27;;;;;;;0.41;83.15;101939.36;2113517;82;21133;-87
2022/01/13 05:02:34;;;;;;;30.92;16.87;;;;;;;0.42;83.11;101936.28;2131644;81;20971;-86
2022/01/13 05:05:35;;;;;;;29.75;16.27;;;;;;;0.42;83.10;101935.86;2122185;82;21552;-86
2022/01/13 05:08:37;;;;;;;28.57;16.73;;;;;;;0.44;83.03;101930.09;2120800;82;20983;-86
2022/01/13 05:11:38;;;;;;;34.08;16.60;;;;;;;0.46;83.05;101927.45;2131325;82;21033;-86
2022/01/13 05:14:40;;;;;;;32.17;17.25;;;;;;;0.48;82.95;101927.38;2120467;82;21027;-86
2022/01/13 05:20:57;;;;;;;31.87;18.45;;;;;;;0.49;82.96;101934.31;2143412;81;21517;-87
2022/01/13 05:23:53;;;;;;;32.63;18.05;;;;;;;0.50;82.97;101929.48;2145343;81;21032;-87
2022/01/13 05:26:54;;;;;;;34.63;18.17;;;;;;;0.50;82.94;101925.56;2144294;81;21004;-89
2022/01/13 05:29:58;;;;;;;35.50;20.30;;;;;;;0.52;82.90;101928.97;2143236;82;21003;-87
2022/01/13 05:32:59;;;;;;;33.08;19.48;;;;;;;0.52;82.90;101924.59;2145691;81;21059;-87
2022/01/13 05:36:01;;;;;;;35.23;18.65;;;;;;;0.55;82.92;101917.95;2144150;81;21029;-87
2022/01/13 05:39:03;;;;;;;31.30;19.32;;;;;;;0.56;82.92;101908.34;2144097;81;21522;-88
2022/01/13 05:42:05;;;;;;;39.45;19.95;;;;;;;0.56;82.93;101903.96;2144170;81;21577;-88
2022/01/13 05:45:14;;;;;;;34.75;18.60;;;;;;;0.58;82.93;101918.28;2146983;81;21053;-86
2022/01/13 05:48:11;;;;;;;41.00;20.25;;;;;;;0.57;82.92;101916.14;2142102;81;21011;-88
2022/01/13 05:51:12;;;;;;;35.15;18.50;;;;;;;0.57;82.90;101917.44;2141475;82;21592;-86
2022/01/13 05:54:13;;;;;;;34.35;19.45;;;;;;;0.61;82.92;101909.02;2146149;81;21042;-86
2022/01/13 05:57:14;;;;;;;32.23;17.92;;;;;;;0.64;82.94;101907.59;2144565;82;20960;-88
2022/01/13 06:00:18;;;;;;;33.23;19.20;;;;;;;0.64;82.88;101913.67;2146482;81;21061;-88
2022/01/13 06:03:20;;;;;;;34.43;17.82;;;;;;;0.67;82.86;101914.00;2143976;82;21535;-88
2022/01/13 06:06:21;;;;;;;30.17;17.48;;;;;;;0.65;82.88;101911.47;2143783;82;21093;-87
2022/01/13 06:09:23;;;;;;;41.18;18.70;;;;;;;0.68;82.92;101910.50;2145510;81;21032;-87
2022/01/13 06:12:32;;;;;;;32.25;18.20;;;;;;;0.67;82.89;101913.55;2145760;82;21036;-88
2022/01/13 06:15:28;;;;;;;35.03;18.10;;;;;;;0.68;82.89;101909.20;2143023;81;21087;-87
2022/01/13 06:18:29;;;;;;;38.83;19.55;;;;;;;0.70;82.94;101902.13;2145585;81;21042;-89
2022/01/13 06:21:31;;;;;;;37.10;20.65;;;;;;;0.73;82.92;101893.32;2140693;82;21041;-88
2022/01/13 06:24:32;;;;;;;38.88;20.15;;;;;;;0.75;82.91;101898.88;2143039;82;21038;-87
2022/01/13 06:27:34;;;;;;;41.70;19.62;;;;;;;0.79;82.90;101904.41;2141841;82;21467;-87
2022/01/13 06:30:36;;;;;;;33.20;20.60;;;;;;;0.82;82.83;101907.36;2140687;82;20949;-87
2022/01/13 06:33:37;;;;;;;37.95;20.70;;;;;;;0.83;82.85;101903.36;2141869;82;21008;-89
2022/01/13 06:36:38;;;;;;;36.17;19.77;;;;;;;0.83;82.80;101917.73;2113253;82;21068;-87
2022/01/13 06:39:40;;;;;;;31.02;17.85;;;;;;;0.83;82.79;101899.44;2143103;82;20964;-88
2022/01/13 06:42:42;;;;;;;32.63;18.98;;;;;;;0.83;82.78;101899.44;2140756;82;21035;-88
2022/01/13 06:45:44;;;;;;;30.92;17.62;;;;;;;0.84;82.81;101912.89;2142245;82;21071;-88
2022/01/13 06:48:45;;;;;;;33.45;18.30;;;;;;;0.87;82.76;101918.02;2141498;82;21051;-88
2022/01/13 06:51:47;;;;;;;33.92;17.85;;;;;;;0.89;82.74;101911.41;2141853;82;21047;-87
2022/01/13 06:54:49;;;;;;;31.77;19.05;;;;;;;0.89;82.73;101924.02;2140272;82;20988;-89
2022/01/13 06:57:52;;;;;;;31.12;17.37;;;;;;;0.91;82.77;101926.59;2139254;82;20973;-87
2022/01/13 07:00:53;;;;;;;39.10;19.70;;;;;;;0.92;82.75;101928.73;2137770;82;20992;-88
2022/01/13 07:03:55;;;;;;;35.30;20.90;;;;;;;0.92;82.74;101940.04;2139488;82;20999;-88
2022/01/13 07:06:56;;;;;;;34.27;19.75;;;;;;;0.94;82.76;101934.77;2139710;82;21609;-87
2022/01/13 07:09:58;;;;;;;28.83;16.02;;;;;;;0.95;82.84;101931.23;2138816;82;21525;-88
2022/01/13 07:12:59;;;;;;;29.40;17.60;;;;;;;0.99;82.99;101930.21;2144168;82;21002;-88
2022/01/13 07:16:02;;;;;;;31.52;19.15;;;;;;;1.02;83.05;101917.02;2141230;82;21031;-87
2022/01/13 07:19:04;;;;;;;31.82;18.62;;;;;;;1.03;83.04;101906.94;2138626;80;20992;-88
2022/01/13 07:22:07;;;;;;;32.05;17.52;;;;;;;1.06;83.08;101908.97;2129837;82;21052;-87
2022/01/13 07:25:09;;;;;;;28.45;16.52;;;;;;;1.08;83.14;101895.85;2132665;82;20957;-88
2022/01/13 07:28:11;;;;;;;24.98;14.90;;;;;;;1.08;83.17;101882.31;2131053;82;21008;-88
2022/01/13 07:31:15;;;;;;;31.25;17.42;;;;;;;1.09;83.16;101874.86;2129420;82;20982;-88
2022/01/13 07:34:16;;;;;;;29.92;16.57;;;;;;;1.13;83.18;101871.68;2115820;82;21013;-89
2022/01/13 07:37:18;;;;;;;33.92;17.87;;;;;;;1.18;83.21;101879.31;2134169;81;21012;-88
2022/01/13 07:40:19;;;;;;;29.00;16.50;;;;;;;1.21;83.19;101874.83;2128523;82;21368;-87
2022/01/13 07:43:25;;;;;;;29.12;16.40;;;;;;;1.25;83.16;101873.77;2136569;82;21012;-87
2022/01/13 07:46:27;;;;;;;33.63;18.15;;;;;;;1.26;83.18;101883.31;2132678;81;21537;-87
2022/01/13 07:49:29;;;;;;;33.83;16.55;;;;;;;1.29;83.18;101878.41;2120403;82;21056;-87
2022/01/13 07:52:30;;;;;;;29.65;15.40;;;;;;;1.33;83.17;101861.23;2129906;82;21781;-88
2022/01/13 07:55:32;;;;;;;35.98;16.77;;;;;;;1.37;83.18;101847.55;2126042;82;21561;-88
2022/01/13 07:58:35;;;;;;;36.55;19.52;;;;;;;1.41;83.21;101849.58;2130453;82;20937;-88
2022/01/13 08:01:36;;;;;;;35.73;20.82;;;;;;;1.47;83.14;101840.18;2130023;82;21028;-87
2022/01/13 08:04:38;;;;;;;33.48;17.32;;;;;;;1.50;83.11;101816.50;2125772;82;21506;-88
2022/01/13 08:07:39;;;;;;;31.12;15.45;;;;;;;1.52;83.05;101791.09;2132185;81;21002;-87
2022/01/13 08:10:41;;;;;;;29.20;15.47;;;;;;;1.56;83.06;101790.91;2138779;81;21016;-87
2022/01/13 08:13:44;;;;;;;29.60;14.33;;;;;;;1.63;82.94;101803.71;2135494;81;21460;-88
2022/01/13 08:16:45;;;;;;;33.40;15.60;;;;;;;1.67;82.91;101808.75;2131014;82;21486;-87
2022/01/13 08:19:48;;;;;;;29.63;14.18;;;;;;;1.72;82.86;101812.02;2142394;81;21040;-89
2022/01/13 08:22:49;;;;;;;27.02;14.30;;;;;;;1.77;82.74;101809.18;2136145;82;21026;-89
2022/01/13 08:25:51;;;;;;;28.05;14.05;;;;;;;1.79;82.57;101792.95;2134788;82;21046;-88
2022/01/13 08:28:52;;;;;;;29.63;14.60;;;;;;;1.83;82.57;101783.19;2141562;82;21058;-88
2022/01/13 08:31:54;;;;;;;27.73;13.50;;;;;;;1.85;82.58;101775.66;2144127;82;21004;-87
2022/01/13 08:34:55;;;;;;;28.57;14.18;;;;;;;1.89;82.46;101768.53;2143087;82;21537;-88
2022/01/13 08:38:04;;;;;;;27.20;13.40;;;;;;;1.91;82.56;101787.61;2141145;82;21032;-88
2022/01/13 08:41:00;;;;;;;27.87;14.83;;;;;;;1.95;82.45;101798.35;2145518;80;21086;-87
2022/01/13 08:44:02;;;;;;;29.75;14.03;;;;;;;1.97;82.44;101806.53;2140104;82;21047;-88
2022/01/13 08:47:04;;;;;;;25.00;14.05;;;;;;;1.99;82.40;101825.61;2134725;82;20997;-87
2022/01/13 08:50:07;;;;;;;27.60;13.48;;;;;;;2.00;82.37;101835.66;2137261;82;21047;-86
2022/01/13 08:53:09;;;;;;;27.93;11.80;;;;;;;2.03;82.41;101842.05;2144799;82;21054;-87
2022/01/13 08:56:11;;;;;;;22.98;11.40;;;;;;;2.08;82.42;101847.91;2141498;82;21031;-87
2022/01/13 08:59:12;;;;;;;24.40;13.03;;;;;;;2.10;82.36;101851.31;2137919;82;21047;-85
2022/01/13 09:02:14;;;;;;;24.40;11.85;;;;;;;2.11;82.37;101856.97;2138969;82;21084;-86
2022/01/13 09:05:18;;;;;;;19.42;11.08;;;;;;;2.14;82.42;101860.75;2143564;82;21063;-87
2022/01/13 09:08:20;;;;;;;22.20;11.83;;;;;;;2.17;82.37;101855.84;2145355;82;21119;-85
2022/01/13 09:11:22;;;;;;;25.17;11.38;;;;;;;2.17;82.31;101854.05;2138594;82;21485;-86
2022/01/13 09:14:26;;;;;;;20.57;12.15;;;;;;;2.18;82.36;101841.80;2136397;82;21099;-87
2022/01/13 09:17:27;;;;;;;22.62;12.18;;;;;;;2.20;82.35;101855.23;2137920;81;21055;-88
2022/01/13 09:20:28;;;;;;;22.73;11.63;;;;;;;2.22;82.40;101840.30;2127112;82;21024;-86
2022/01/13 09:23:33;;;;;;;22.37;10.88;;;;;;;2.26;82.45;101840.16;2120684;82;20976;-86
2022/01/13 09:26:33;;;;;;;18.92;10.45;;;;;;;2.31;82.46;101836.83;2119348;82;21498;-87
2022/01/13 09:29:35;;;;;;;21.97;10.82;;;;;;;2.31;82.37;101831.16;2122937;82;21043;-88
2022/01/13 09:32:37;;;;;;;21.62;11.48;;;;;;;2.33;82.38;101838.46;2121415;82;21127;-87
2022/01/13 09:35:38;;;;;;;27.20;12.43;;;;;;;2.34;82.38;101843.27;2119260;83;21012;-86
2022/01/13 09:38:40;;;;;;;18.85;11.28;;;;;;;2.36;82.43;101841.41;2121937;82;21572;-86
2022/01/13 09:41:44;;;;;;;23.20;12.45;;;;;;;2.34;82.47;101828.39;2113070;82;21020;-86
2022/01/13 09:44:48;;;;;;;22.42;12.18;;;;;;;2.33;82.44;101834.53;2121667;82;20980;-87
2022/01/13 09:47:51;;;;;;;22.70;10.20;;;;;;;2.32;82.47;101829.38;2112046;82;21542;-87
2022/01/13 09:50:52;;;;;;;23.07;11.83;;;;;;;2.31;82.56;101823.73;2117893;82;20969;-87
2022/01/13 09:53:54;;;;;;;20.08;11.38;;;;;;;2.30;82.56;101829.44;2123663;82;20976;-88
2022/01/13 09:56:55;;;;;;;28.85;13.25;;;;;;;2.30;82.62;101829.44;2113467;82;21028;-86
2022/01/13 09:59:58;;;;;;;26.62;12.50;;;;;;;2.31;82.72;101832.47;2122357;82;20993;-87
2022/01/13 10:03:00;;;;;;;22.82;12.35;;;;;;;2.29;82.70;101826.91;2120590;82;21518;-85
2022/01/13 10:06:12;;;;;;;24.77;11.68;;;;;;;2.26;82.69;101834.91;2109392;82;21024;-87
2022/01/13 10:09:15;;;;;;;22.17;12.47;;;;;;;2.26;82.77;101825.75;2116797;82;21544;-87
2022/01/13 10:12:35;;;;;;;21.45;12.05;;;;;;;2.27;82.78;101822.19;2114681;82;21043;-88
2022/01/13 10:19:07;;;;;;;25.77;12.28;;;;;;;2.30;82.82;101812.87;2111898;82;21033;-88
2022/01/13 10:22:26;;;;;;;28.65;14.33;;;;;;;2.32;82.92;101796.64;2107556;82;21016;-87
2022/01/13 10:25:32;;;;;;;26.45;13.28;;;;;;;2.34;82.81;101798.73;2129426;82;21060;-87
2022/01/13 10:28:33;;;;;;;23.90;12.78;;;;;;;2.33;82.80;101803.56;2136686;82;20965;-87
2022/01/13 10:31:51;;;;;;;27.37;13.20;;;;;;;2.32;82.87;101796.64;2131872;82;20973;-88
2022/01/13 10:35:17;;;;;;;21.95;11.25;;;;;;;2.31;82.83;101808.02;2130303;82;21075;-87
2022/01/13 10:38:20;;;;;;;23.57;12.07;;;;;;;2.33;82.89;101801.79;2115521;82;21095;-86
2022/01/13 10:41:37;;;;;;;20.70;12.25;;;;;;;2.34;82.87;101792.19;2133722;81;21001;-86
2022/01/13 10:44:34;;;;;;;25.92;12.25;;;;;;;2.36;82.93;101789.00;2132588;81;21053;-87
2022/01/13 10:47:39;;;;;;;23.70;13.18;;;;;;;2.37;82.92;101805.13;2134967;82;21015;-88
2022/01/13 10:50:52;;;;;;;26.42;13.75;;;;;;;2.38;82.93;101793.72;2130283;82;20996;-86
2022/01/13 10:53:54;;;;;;;22.87;12.00;;;;;;;2.38;82.97;101795.03;2132082;82;20986;-86
2022/01/13 10:57:22;;;;;;;24.63;12.90;;;;;;;2.41;82.97;101780.47;2131628;83;21031;-87
2022/01/13 11:00:26;;;;;;;31.37;13.00;;;;;;;2.41;82.92;101777.85;2133314;82;20992;-88
2022/01/13 11:03:30;;;;;;;19.75;11.73;;;;;;;2.43;82.92;101773.39;2131462;81;21007;-86
2022/01/13 11:06:31;;;;;;;24.85;11.90;;;;;;;2.44;82.87;101768.53;2129628;82;20977;-88
2022/01/13 11:09:33;;;;;;;25.92;11.70;;;;;;;2.45;82.87;101765.01;2127759;81;21039;-87
2022/01/13 11:12:39;;;;;;;21.60;11.88;;;;;;;2.45;82.89;101755.84;2132329;82;21051;-87
2022/01/13 11:15:45;;;;;;;22.15;13.15;;;;;;;2.47;82.95;101759.20;2131282;81;21023;-88
2022/01/13 11:18:44;;;;;;;24.35;11.85;;;;;;;2.50;82.99;101739.88;2132229;82;21561;-86
2022/01/13 11:21:47;;;;;;;23.32;10.85;;;;;;;2.51;82.98;101734.57;2121333;82;21028;-86
2022/01/13 11:24:49;;;;;;;21.62;11.73;;;;;;;2.53;82.95;101739.25;2122022;82;20998;-87
2022/01/13 11:27:52;;;;;;;21.35;10.85;;;;;;;2.58;82.97;101741.66;2118413;82;21609;-87
2022/01/13 11:30:54;;;;;;;21.27;10.80;;;;;;;2.59;83.05;101738.98;2116987;82;21004;-88
2022/01/13 11:33:56;;;;;;;21.90;11.45;;;;;;;2.63;83.01;101735.27;2113625;82;21016;-89
2022/01/13 11:36:57;;;;;;;26.02;11.55;;;;;;;2.66;83.02;101736.42;2123452;82;21009;-88
2022/01/13 11:39:59;;;;;;;21.65;11.00;;;;;;;2.68;82.99;101737.67;2113772;82;21032;-87
2022/01/13 11:43:03;;;;;;;22.65;11.68;;;;;;;2.68;82.95;101730.65;2120220;82;21106;-87
2022/01/13 11:46:15;;;;;;;22.82;11.73;;;;;;;2.69;82.92;101744.12;2122826;82;20949;-88
2022/01/13 11:49:22;;;;;;;18.55;10.88;;;;;;;2.69;82.92;101742.81;2112704;82;21019;-87
2022/01/13 11:52:48;;;;;;;20.27;10.35;;;;;;;2.71;82.91;101726.19;2118545;82;21024;-88
2022/01/13 11:55:41;;;;;;;20.62;10.95;;;;;;;2.69;82.88;101731.02;2127279;82;21032;-86
2022/01/13 11:58:45;;;;;;;18.27;10.95;;;;;;;2.73;82.90;101729.09;2118208;82;21094;-88
2022/01/13 12:01:47;;;;;;;21.42;12.23;;;;;;;2.75;82.85;101723.31;2121418;82;20965;-87
2022/01/13 12:05:09;;;;;;;24.37;12.15;;;;;;;2.75;82.86;101725.09;2120768;82;21144;-86
2022/01/13 12:08:32;;;;;;;22.93;12.70;;;;;;;2.74;82.82;101717.70;2123778;82;21447;-88
2022/01/13 12:11:38;;;;;;;24.37;12.13;;;;;;;2.73;82.81;101702.88;2122134;82;21053;-87
2022/01/13 12:14:42;;;;;;;21.27;11.18;;;;;;;2.71;82.81;101703.91;2120082;82;20980;-87
2022/01/13 12:18:02;;;;;;;22.45;11.18;;;;;;;2.68;82.84;101699.66;2119381;82;21042;-87
2022/01/13 12:21:20;;;;;;;23.55;12.13;;;;;;;2.66;82.82;101695.80;2126328;82;21071;-86
2022/01/13 12:24:08;;;;;;;23.42;11.65;;;;;;;2.67;82.87;101687.00;2128503;82;21021;-88
2022/01/13 12:27:09;;;;;;;22.48;12.40;;;;;;;2.67;82.84;101674.36;2129134;81;21061;-86
2022/01/13 12:30:26;;;;;;;22.48;12.28;;;;;;;2.65;82.87;101662.66;2130638;82;21044;-87
2022/01/13 12:33:33;;;;;;;24.75;11.83;;;;;;;2.67;82.90;101659.95;2129205;82;21032;-88
2022/01/13 12:36:40;;;;;;;21.68;11.53;;;;;;;2.69;82.94;101654.17;2131419;82;21029;-86
2022/01/13 12:39:45;;;;;;;25.08;12.20;;;;;;;2.72;82.95;101642.68;2134011;82;21636;-87
2022/01/13 12:42:52;;;;;;;18.35;10.82;;;;;;;2.73;82.90;101634.72;2134039;81;21032;-86
2022/01/13 12:45:53;;;;;;;21.45;10.85;;;;;;;2.76;82.86;101633.28;2132104;81;21009;-86
2022/01/13 12:48:56;;;;;;;22.50;11.20;;;;;;;2.81;82.84;101636.48;2133670;82;21479;-88
2022/01/13 12:51:57;;;;;;;23.35;12.35;;;;;;;2.84;82.76;101639.41;2128904;82;21004;-87
2022/01/13 12:54:59;;;;;;;21.37;11.85;;;;;;;2.86;82.72;101630.55;2130883;81;20989;-87
2022/01/13 12:58:01;;;;;;;22.00;12.05;;;;;;;2.86;82.71;101641.50;2118589;81;20990;-87
2022/01/13 13:01:16;;;;;;;21.85;11.28;;;;;;;2.87;82.62;101637.94;2129900;82;20992;-85
2022/01/13 13:04:18;;;;;;;23.83;11.33;;;;;;;2.88;82.57;101642.28;2135185;82;20952;-87
2022/01/13 13:07:21;;;;;;;23.77;11.60;;;;;;;2.88;82.54;101634.41;2130703;82;20972;-86
2022/01/13 13:10:22;;;;;;;21.52;11.00;;;;;;;2.91;82.50;101639.02;2134321;81;21040;-87
2022/01/13 13:13:26;;;;;;;21.05;11.73;;;;;;;2.92;82.45;101626.75;2129242;82;21032;-87
2022/01/13 13:16:29;;;;;;;20.95;11.73;;;;;;;2.95;82.42;101622.66;2129205;82;21012;-86
2022/01/13 13:19:39;;;;;;;24.20;11.33;;;;;;;2.96;82.30;101618.25;2130331;82;21035;-88
2022/01/13 13:22:47;;;;;;;26.80;12.33;;;;;;;2.98;82.33;101618.56;2126370;82;21029;-87
2022/01/13 13:25:55;;;;;;;23.12;11.80;;;;;;;2.99;82.30;101615.03;2131748;82;21486;-86
2022/01/13 13:28:58;;;;;;;22.32;11.57;;;;;;;3.01;82.26;101623.64;2130746;81;20988;-86
2022/01/13 13:31:59;;;;;;;21.20;11.53;;;;;;;3.03;82.22;101622.27;2131273;82;21494;-86
2022/01/13 13:35:01;;;;;;;22.67;10.65;;;;;;;3.06;82.18;101619.00;2125475;82;21023;-87
2022/01/13 13:38:02;;;;;;;22.62;11.22;;;;;;;3.08;82.13;101621.09;2131045;82;20991;-87
2022/01/13 13:41:04;;;;;;;19.95;10.65;;;;;;;3.08;82.01;101622.40;2131154;82;21515;-88
2022/01/13 13:44:08;;;;;;;16.93;10.13;;;;;;;3.08;81.95;101625.02;2132466;82;21463;-86
2022/01/13 13:47:19;;;;;;;22.10;11.28;;;;;;;3.08;81.88;101625.02;2129806;82;21314;-86
2022/01/13 13:50:21;;;;;;;18.23;10.53;;;;;;;3.09;81.89;101617.52;2130866;82;20961;-86
2022/01/13 13:53:22;;;;;;;22.05;11.57;;;;;;;3.10;81.74;101628.89;2128500;82;21021;-88
2022/01/13 13:56:26;;;;;;;24.20;11.65;;;;;;;3.11;81.80;101634.03;2133203;82;21015;-86
2022/01/13 13:59:55;;;;;;;26.48;11.73;;;;;;;3.12;81.64;101635.72;2130966;82;21037;-88
2022/01/13 14:02:54;;;;;;;22.62;11.93;;;;;;;3.11;81.63;101628.79;2132576;82;21486;-86
2022/01/13 14:05:56;;;;;;;24.75;13.22;;;;;;;3.09;81.54;101634.58;2128451;82;20973;-86
2022/01/13 14:08:57;;;;;;;27.30;12.88;;;;;;;3.05;81.51;101633.53;2114338;82;21068;-87
2022/01/13 14:11:58;;;;;;;25.68;11.78;;;;;;;3.01;81.52;101627.57;2127782;82;21008;-86
2022/01/13 14:15:29;;;;;;;24.05;11.33;;;;;;;2.99;81.46;101632.08;2129581;82;20956;-87
2022/01/13 14:18:36;;;;;;;21.55;11.45;;;;;;;2.95;81.36;101634.45;2130679;82;21483;-87
2022/01/13 14:21:52;;;;;;;25.00;12.78;;;;;;;2.91;81.41;101632.94;2129366;82;21032;-87
2022/01/13 14:24:53;;;;;;;27.15;14.05;;;;;;;2.88;81.29;101639.66;2130449;82;21544;-87
2022/01/13 14:27:59;;;;;;;34.35;15.72;;;;;;;2.83;81.33;101645.59;2138139;82;21080;-88
2022/01/13 14:31:07;;;;;;;35.65;18.37;;;;;;;2.78;81.32;101643.20;2135637;82;21001;-87
2022/01/13 14:34:09;;;;;;;52.90;25.43;;;;;;;2.81;81.45;101644.82;2130495;82;21086;-87